sensor_id;sensor_type;location;lat;lon;timestamp;pressure;altitude;pressure_sealevel;temperature;humidity
45793;BME280;31495;42.740;22.908;2024-02-26T00:00:28;92656.56;;;4.61;82.25
45793;BME280;31495;42.740;22.908;2024-02-26T00:01:31;92652.63;;;4.65;81.95
45793;BME280;31495;42.740;22.908;2024-02-26T00:02:30;92658.19;;;4.69;81.78
45793;BME280;31495;42.740;22.908;2024-02-26T00:03:31;92662.69;;;4.67;81.74
45793;BME280;31495;42.740;22.908;2024-02-26T00:04:34;92658.94;;;4.63;82.08
45793;BME280;31495;42.740;22.908;2024-02-26T00:05:34;92656.56;;;4.61;82.29
45793;BME280;31495;42.740;22.908;2024-02-26T00:06:33;92658.31;;;4.60;82.41
45793;BME280;31495;42.740;22.908;2024-02-26T00:07:32;92656.19;;;4.64;82.51
45793;BME280;31495;42.740;22.908;2024-02-26T00:08:32;92648.94;;;4.68;82.62
45793;BME280;31495;42.740;22.908;2024-02-26T00:09:31;92651.91;;;4.71;82.43
45793;BME280;31495;42.740;22.908;2024-02-26T00:10:31;92656.44;;;4.69;82.69
45793;BME280;31495;42.740;22.908;2024-02-26T00:11:31;92653.31;;;4.74;82.60
45793;BME280;31495;42.740;22.908;2024-02-26T00:12:30;92646.78;;;4.71;82.60
45793;BME280;31495;42.740;22.908;2024-02-26T00:13:30;92642.84;;;4.75;82.12
45793;BME280;31495;42.740;22.908;2024-02-26T00:14:32;92639.31;;;4.76;81.46
45793;BME280;31495;42.740;22.908;2024-02-26T00:15:31;92647.19;;;4.75;81.61
45793;BME280;31495;42.740;22.908;2024-02-26T00:16:30;92645.63;;;4.74;81.32
45793;BME280;31495;42.740;22.908;2024-02-26T00:17:30;92643.06;;;4.74;81.29
45793;BME280;31495;42.740;22.908;2024-02-26T00:18:30;92635.41;;;4.81;81.24
45793;BME280;31495;42.740;22.908;2024-02-26T00:19:29;92643.28;;;4.79;81.41
45793;BME280;31495;42.740;22.908;2024-02-26T00:20:28;92635.59;;;4.79;81.53
45793;BME280;31495;42.740;22.908;2024-02-26T00:21:27;92636.56;;;4.78;81.72
45793;BME280;31495;42.740;22.908;2024-02-26T00:22:27;92637.94;;;4.74;81.87
45793;BME280;31495;42.740;22.908;2024-02-26T00:23:26;92641.69;;;4.78;81.82
45793;BME280;31495;42.740;22.908;2024-02-26T00:24:26;92635.56;;;4.72;81.92
45793;BME280;31495;42.740;22.908;2024-02-26T00:25:25;92625.72;;;4.76;81.94
45793;BME280;31495;42.740;22.908;2024-02-26T00:26:25;92626.69;;;4.75;82.19
45793;BME280;31495;42.740;22.908;2024-02-26T00:27:24;92630.66;;;4.77;82.51
45793;BME280;31495;42.740;22.908;2024-02-26T00:28:24;92631.22;;;4.73;82.59
45793;BME280;31495;42.740;22.908;2024-02-26T00:29:28;92628.66;;;4.73;82.42
45793;BME280;31495;42.740;22.908;2024-02-26T00:30:27;92620.19;;;4.72;82.32
45793;BME280;31495;42.740;22.908;2024-02-26T00:31:27;92629.81;;;4.70;82.76
45793;BME280;31495;42.740;22.908;2024-02-26T00:32:27;92629.03;;;4.70;82.84
45793;BME280;31495;42.740;22.908;2024-02-26T00:33:26;92632.38;;;4.70;82.85
45793;BME280;31495;42.740;22.908;2024-02-26T00:34:25;92633.38;;;4.69;82.99
45793;BME280;31495;42.740;22.908;2024-02-26T00:35:25;92632.56;;;4.69;83.33
45793;BME280;31495;42.740;22.908;2024-02-26T00:36:24;92630.00;;;4.69;83.82
45793;BME280;31495;42.740;22.908;2024-02-26T00:37:23;92626.88;;;4.73;83.89
45793;BME280;31495;42.740;22.908;2024-02-26T00:38:23;92620.78;;;4.74;83.93
45793;BME280;31495;42.740;22.908;2024-02-26T00:39:22;92625.50;;;4.71;84.23
45793;BME280;31495;42.740;22.908;2024-02-26T00:40:21;92626.47;;;4.70;84.34
45793;BME280;31495;42.740;22.908;2024-02-26T00:41:21;92630.25;;;4.74;84.37
45793;BME280;31495;42.740;22.908;2024-02-26T00:42:20;92625.31;;;4.72;84.67
45793;BME280;31495;42.740;22.908;2024-02-26T00:43:19;92616.03;;;4.71;84.67
45793;BME280;31495;42.740;22.908;2024-02-26T00:44:19;92575.44;;;4.47;84.81
45793;BME280;31495;42.740;22.908;2024-02-26T00:45:19;92624.13;;;4.75;84.81
45793;BME280;31495;42.740;22.908;2024-02-26T00:46:19;92620.19;;;4.72;85.01
45793;BME280;31495;42.740;22.908;2024-02-26T00:47:20;92618.78;;;4.70;84.91
45793;BME280;31495;42.740;22.908;2024-02-26T00:48:19;92616.22;;;4.70;85.01
45793;BME280;31495;42.740;22.908;2024-02-26T00:49:19;92618.78;;;4.70;84.87
45793;BME280;31495;42.740;22.908;2024-02-26T00:50:18;92614.44;;;4.70;85.06
45793;BME280;31495;42.740;22.908;2024-02-26T00:51:18;92611.31;;;4.75;85.12
45793;BME280;31495;42.740;22.908;2024-02-26T00:52:17;92616.84;;;4.78;84.89
45793;BME280;31495;42.740;22.908;2024-02-26T00:53:16;92612.91;;;4.76;84.83
45793;BME280;31495;42.740;22.908;2024-02-26T00:54:16;92613.88;;;4.75;84.89
45793;BME280;31495;42.740;22.908;2024-02-26T00:55:15;92616.84;;;4.78;84.95
45793;BME280;31495;42.740;22.908;2024-02-26T00:56:15;92617.47;;;4.81;84.87
45793;BME280;31495;42.740;22.908;2024-02-26T00:57:15;92615.31;;;4.84;84.86
45793;BME280;31495;42.740;22.908;2024-02-26T00:58:15;92613.53;;;4.85;84.85
45793;BME280;31495;42.740;22.908;2024-02-26T00:59:15;92607.06;;;4.89;84.87
45793;BME280;31495;42.740;22.908;2024-02-26T01:00:15;92613.41;;;4.93;84.88
45793;BME280;31495;42.740;22.908;2024-02-26T01:01:15;92613.81;;;4.96;84.58
45793;BME280;31495;42.740;22.908;2024-02-26T01:02:14;92612.25;;;4.95;84.52
45793;BME280;31495;42.740;22.908;2024-02-26T01:03:14;92607.91;;;4.96;84.55
45793;BME280;31495;42.740;22.908;2024-02-26T01:04:14;92610.06;;;4.92;84.44
45793;BME280;31495;42.740;22.908;2024-02-26T01:05:13;92607.72;;;4.97;84.26
45793;BME280;31495;42.740;22.908;2024-02-26T01:06:12;92607.50;;;4.92;84.18
45793;BME280;31495;42.740;22.908;2024-02-26T01:07:12;92604.94;;;4.92;84.03
45793;BME280;31495;42.740;22.908;2024-02-26T01:08:11;92601.19;;;4.95;84.09
45793;BME280;31495;42.740;22.908;2024-02-26T01:09:10;92602.41;;;4.99;84.05
45793;BME280;31495;42.740;22.908;2024-02-26T01:10:09;92604.00;;;5.00;83.87
45793;BME280;31495;42.740;22.908;2024-02-26T01:11:09;92607.94;;;5.03;83.70
45793;BME280;31495;42.740;22.908;2024-02-26T01:12:08;92607.53;;;4.99;83.72
45793;BME280;31495;42.740;22.908;2024-02-26T01:13:08;92599.06;;;4.99;83.33
45793;BME280;31495;42.740;22.908;2024-02-26T01:14:07;92602.00;;;4.95;83.56
45793;BME280;31495;42.740;22.908;2024-02-26T01:15:06;92600.03;;;4.97;83.54
45793;BME280;31495;42.740;22.908;2024-02-26T01:16:06;92591.50;;;4.90;83.41
45793;BME280;31495;42.740;22.908;2024-02-26T01:17:06;92597.19;;;4.86;83.58
45793;BME280;31495;42.740;22.908;2024-02-26T01:18:05;92597.00;;;4.87;83.77
45793;BME280;31495;42.740;22.908;2024-02-26T01:19:04;92597.97;;;4.86;83.98
45793;BME280;31495;42.740;22.908;2024-02-26T01:20:04;92591.88;;;4.87;83.99
45793;BME280;31495;42.740;22.908;2024-02-26T01:21:04;92587.91;;;4.85;83.97
45793;BME280;31495;42.740;22.908;2024-02-26T01:22:05;92592.88;;;4.93;83.55
45793;BME280;31495;42.740;22.908;2024-02-26T01:23:05;92594.69;;;4.92;83.72
45793;BME280;31495;42.740;22.908;2024-02-26T01:24:05;92592.28;;;4.91;83.96
45793;BME280;31495;42.740;22.908;2024-02-26T01:25:04;92587.94;;;4.91;83.97
45793;BME280;31495;42.740;22.908;2024-02-26T01:26:03;92590.28;;;4.86;83.96
45793;BME280;31495;42.740;22.908;2024-02-26T01:27:04;92590.09;;;4.88;83.81
45793;BME280;31495;42.740;22.908;2024-02-26T01:28:03;92582.19;;;4.83;83.71
45793;BME280;31495;42.740;22.908;2024-02-26T01:29:03;92588.31;;;4.88;83.71
45793;BME280;31495;42.740;22.908;2024-02-26T01:30:05;92590.09;;;4.88;83.71
45793;BME280;31495;42.740;22.908;2024-02-26T01:31:05;92594.69;;;4.92;83.60
45793;BME280;31495;42.740;22.908;2024-02-26T01:32:06;92586.38;;;4.90;83.62
45793;BME280;31495;42.740;22.908;2024-02-26T01:33:06;92588.31;;;4.88;83.43
45793;BME280;31495;42.740;22.908;2024-02-26T01:34:05;92582.78;;;4.85;83.74
45793;BME280;31495;42.740;22.908;2024-02-26T01:35:05;92591.69;;;4.89;83.59
45793;BME280;31495;42.740;22.908;2024-02-26T01:36:09;92589.13;;;4.89;83.45
45793;BME280;31495;42.740;22.908;2024-02-26T01:37:08;92599.63;;;4.94;83.37
45793;BME280;31495;42.740;22.908;2024-02-26T01:38:07;92592.34;;;4.97;83.18
45793;BME280;31495;42.740;22.908;2024-02-26T01:39:07;92590.13;;;4.94;83.36
45793;BME280;31495;42.740;22.908;2024-02-26T01:40:06;92594.69;;;4.92;83.29
45793;BME280;31495;42.740;22.908;2024-02-26T01:41:08;92587.91;;;4.85;83.61
45793;BME280;31495;42.740;22.908;2024-02-26T01:42:08;92595.38;;;4.79;84.05
45793;BME280;31495;42.740;22.908;2024-02-26T01:43:07;92588.38;;;4.67;84.69
45793;BME280;31495;42.740;22.908;2024-02-26T01:44:06;92587.56;;;4.59;85.60
45793;BME280;31495;42.740;22.908;2024-02-26T01:45:06;92595.25;;;4.59;85.77
45793;BME280;31495;42.740;22.908;2024-02-26T01:46:10;92586.38;;;4.62;85.95
45793;BME280;31495;42.740;22.908;2024-02-26T01:47:10;92594.22;;;4.54;86.15
45793;BME280;31495;42.740;22.908;2024-02-26T01:48:10;92597.19;;;4.57;86.33
45793;BME280;31495;42.740;22.908;2024-02-26T01:49:11;92585.56;;;4.55;86.47
45793;BME280;31495;42.740;22.908;2024-02-26T01:50:11;92589.03;;;4.47;86.56
45793;BME280;31495;42.740;22.908;2024-02-26T01:51:11;92584.47;;;4.42;87.01
45793;BME280;31495;42.740;22.908;2024-02-26T01:52:11;92590.59;;;4.41;87.13
45793;BME280;31495;42.740;22.908;2024-02-26T01:53:10;92590.59;;;4.41;87.24
45793;BME280;31495;42.740;22.908;2024-02-26T01:54:10;92595.72;;;4.41;87.13
45793;BME280;31495;42.740;22.908;2024-02-26T01:55:09;92584.28;;;4.44;87.41
45793;BME280;31495;42.740;22.908;2024-02-26T01:56:09;92589.19;;;4.39;87.30
45793;BME280;31495;42.740;22.908;2024-02-26T01:57:08;92582.91;;;4.41;87.38
45793;BME280;31495;42.740;22.908;2024-02-26T01:58:08;92583.28;;;4.38;87.41
45793;BME280;31495;42.740;22.908;2024-02-26T01:59:08;92592.16;;;4.42;87.31
45793;BME280;31495;42.740;22.908;2024-02-26T02:00:08;92587.44;;;4.39;87.57
45793;BME280;31495;42.740;22.908;2024-02-26T02:01:07;92580.72;;;4.38;87.59
45793;BME280;31495;42.740;22.908;2024-02-26T02:02:07;92591.56;;;4.40;87.77
45793;BME280;31495;42.740;22.908;2024-02-26T02:03:08;92585.09;;;4.45;87.69
45793;BME280;31495;42.740;22.908;2024-02-26T02:04:07;92581.72;;;4.44;87.74
45793;BME280;31495;42.740;22.908;2024-02-26T02:05:07;92585.31;;;4.50;87.84
45793;BME280;31495;42.740;22.908;2024-02-26T02:06:08;92586.72;;;4.52;87.81
45793;BME280;31495;42.740;22.908;2024-02-26T02:07:08;92585.16;;;4.51;87.70
45793;BME280;31495;42.740;22.908;2024-02-26T02:08:08;92574.53;;;4.54;87.68
45793;BME280;31495;42.740;22.908;2024-02-26T02:09:08;92578.59;;;4.49;87.94
45793;BME280;31495;42.740;22.908;2024-02-26T02:10:08;92578.97;;;4.46;87.98
45793;BME280;31495;42.740;22.908;2024-02-26T02:11:07;92583.19;;;4.53;87.81
45793;BME280;31495;42.740;22.908;2024-02-26T02:12:06;92575.81;;;4.44;88.24
45793;BME280;31495;42.740;22.908;2024-02-26T02:13:06;92571.66;;;4.42;88.72
45793;BME280;31495;42.740;22.908;2024-02-26T02:14:05;92572.53;;;4.50;88.29
45793;BME280;31495;42.740;22.908;2024-02-26T02:15:05;92570.69;;;4.44;88.29
45793;BME280;31495;42.740;22.908;2024-02-26T02:16:05;92577.63;;;4.50;88.52
45793;BME280;31495;42.740;22.908;2024-02-26T02:17:04;92578.66;;;4.55;88.39
45793;BME280;31495;42.740;22.908;2024-02-26T02:18:03;92572.75;;;4.55;88.31
45793;BME280;31495;42.740;22.908;2024-02-26T02:19:03;92578.28;;;4.58;88.21
45793;BME280;31495;42.740;22.908;2024-02-26T02:20:02;92578.31;;;4.65;87.93
45793;BME280;31495;42.740;22.908;2024-02-26T02:21:02;92576.75;;;4.64;87.65
45793;BME280;31495;42.740;22.908;2024-02-26T02:22:02;92579.88;;;4.59;87.63
45793;BME280;31495;42.740;22.908;2024-02-26T02:23:01;92574.00;;;4.66;87.69
45793;BME280;31495;42.740;22.908;2024-02-26T02:24:01;92576.63;;;4.72;87.68
45793;BME280;31495;42.740;22.908;2024-02-26T02:25:00;92575.81;;;4.72;87.23
45793;BME280;31495;42.740;22.908;2024-02-26T02:25:59;92577.25;;;4.81;86.80
45793;BME280;31495;42.740;22.908;2024-02-26T02:26:59;92578.41;;;4.78;86.72
45793;BME280;31495;42.740;22.908;2024-02-26T02:27:58;92585.72;;;4.82;86.68
45793;BME280;31495;42.740;22.908;2024-02-26T02:28:58;92574.31;;;4.84;86.60
45793;BME280;31495;42.740;22.908;2024-02-26T02:29:59;92570.50;;;4.73;86.84
45793;BME280;31495;42.740;22.908;2024-02-26T02:30:58;92568.25;;;4.64;87.21
45793;BME280;31495;42.740;22.908;2024-02-26T02:31:58;92564.34;;;4.68;87.25
45793;BME280;31495;42.740;22.908;2024-02-26T02:32:58;92557.63;;;4.67;87.15
45793;BME280;31495;42.740;22.908;2024-02-26T02:33:58;92561.63;;;4.69;87.31
45793;BME280;31495;42.740;22.908;2024-02-26T02:34:58;92558.88;;;4.71;87.02
45793;BME280;31495;42.740;22.908;2024-02-26T02:35:58;92550.59;;;4.75;87.13
45793;BME280;31495;42.740;22.908;2024-02-26T02:36:59;92559.69;;;4.78;86.88
45793;BME280;31495;42.740;22.908;2024-02-26T02:37:58;92560.84;;;4.75;87.21
45793;BME280;31495;42.740;22.908;2024-02-26T02:38:58;92569.13;;;4.71;87.63
45793;BME280;31495;42.740;22.908;2024-02-26T02:39:58;92576.00;;;4.70;88.02
45793;BME280;31495;42.740;22.908;2024-02-26T02:40:59;92573.88;;;4.74;87.93
45793;BME280;31495;42.740;22.908;2024-02-26T02:41:59;92550.66;;;4.54;87.67
45793;BME280;31495;42.740;22.908;2024-02-26T02:42:58;92586.53;;;4.82;87.89
45793;BME280;31495;42.740;22.908;2024-02-26T02:44:01;92577.84;;;4.83;87.51
45793;BME280;31495;42.740;22.908;2024-02-26T02:45:01;92578.63;;;4.84;87.54
45793;BME280;31495;42.740;22.908;2024-02-26T02:46:00;92581.19;;;4.84;87.30
45793;BME280;31495;42.740;22.908;2024-02-26T02:47:00;92568.19;;;4.85;87.61
45793;BME280;31495;42.740;22.908;2024-02-26T02:48:00;92581.63;;;4.87;87.30
45793;BME280;31495;42.740;22.908;2024-02-26T02:49:00;92588.50;;;4.87;87.54
45793;BME280;31495;42.740;22.908;2024-02-26T02:49:59;92547.75;;;4.64;87.34
45793;BME280;31495;42.740;22.908;2024-02-26T02:50:58;92585.75;;;4.88;87.49
45793;BME280;31495;42.740;22.908;2024-02-26T02:51:57;92585.34;;;4.85;87.39
45793;BME280;31495;42.740;22.908;2024-02-26T02:52:57;92578.63;;;4.84;87.62
45793;BME280;31495;42.740;22.908;2024-02-26T02:53:56;92580.81;;;4.87;87.55
45793;BME280;31495;42.740;22.908;2024-02-26T02:54:55;92594.50;;;4.94;87.28
45793;BME280;31495;42.740;22.908;2024-02-26T02:55:55;92582.63;;;4.93;87.36
45793;BME280;31495;42.740;22.908;2024-02-26T02:56:54;92587.56;;;4.94;87.28
45793;BME280;31495;42.740;22.908;2024-02-26T02:57:53;92581.03;;;4.92;87.62
45793;BME280;31495;42.740;22.908;2024-02-26T02:58:53;92578.09;;;4.95;87.60
45793;BME280;31495;42.740;22.908;2024-02-26T02:59:52;92581.47;;;4.95;87.88
45793;BME280;31495;42.740;22.908;2024-02-26T03:00:51;92586.06;;;5.00;87.73
45793;BME280;31495;42.740;22.908;2024-02-26T03:01:50;92590.97;;;5.02;87.71
45793;BME280;31495;42.740;22.908;2024-02-26T03:02:51;92581.50;;;5.02;87.45
45793;BME280;31495;42.740;22.908;2024-02-26T03:03:50;92578.19;;;5.08;87.21
45793;BME280;31495;42.740;22.908;2024-02-26T03:04:50;92587.66;;;5.08;87.23
45793;BME280;31495;42.740;22.908;2024-02-26T03:05:49;92578.19;;;5.08;87.24
45793;BME280;31495;42.740;22.908;2024-02-26T03:06:48;92585.91;;;5.08;87.24
45793;BME280;31495;42.740;22.908;2024-02-26T03:07:48;92580.34;;;5.11;86.77
45793;BME280;31495;42.740;22.908;2024-02-26T03:08:47;92581.75;;;5.14;86.65
45793;BME280;31495;42.740;22.908;2024-02-26T03:09:46;92573.66;;;5.10;86.95
45793;BME280;31495;42.740;22.908;2024-02-26T03:10:45;92582.31;;;5.09;86.96
45793;BME280;31495;42.740;22.908;2024-02-26T03:11:45;92584.31;;;5.07;87.20
45793;BME280;31495;42.740;22.908;2024-02-26T03:12:45;92568.91;;;5.07;87.25
45793;BME280;31495;42.740;22.908;2024-02-26T03:13:44;92574.03;;;5.07;87.36
45793;BME280;31495;42.740;22.908;2024-02-26T03:14:44;92575.03;;;5.13;87.14
45793;BME280;31495;42.740;22.908;2024-02-26T03:15:43;92576.63;;;5.14;87.07
45793;BME280;31495;42.740;22.908;2024-02-26T03:16:43;92575.66;;;5.15;87.16
45793;BME280;31495;42.740;22.908;2024-02-26T03:17:42;92572.69;;;5.18;87.03
45793;BME280;31495;42.740;22.908;2024-02-26T03:18:41;92571.91;;;5.18;86.98
45793;BME280;31495;42.740;22.908;2024-02-26T03:19:40;92573.91;;;5.22;86.91
45793;BME280;31495;42.740;22.908;2024-02-26T03:20:40;92583.00;;;5.25;86.91
45793;BME280;31495;42.740;22.908;2024-02-26T03:21:39;92578.84;;;5.24;86.83
45793;BME280;31495;42.740;22.908;2024-02-26T03:22:39;92576.28;;;5.24;87.01
45793;BME280;31495;42.740;22.908;2024-02-26T03:23:39;92576.09;;;5.25;87.15
45793;BME280;31495;42.740;22.908;2024-02-26T03:24:39;92573.34;;;5.27;87.23
45793;BME280;31495;42.740;22.908;2024-02-26T03:25:38;92573.53;;;5.25;87.29
45793;BME280;31495;42.740;22.908;2024-02-26T03:26:37;92581.03;;;5.27;87.35
45793;BME280;31495;42.740;22.908;2024-02-26T03:27:37;92577.91;;;5.31;87.41
45793;BME280;31495;42.740;22.908;2024-02-26T03:28:37;92578.09;;;5.30;87.37
45793;BME280;31495;42.740;22.908;2024-02-26T03:29:39;92575.94;;;5.33;87.63
45793;BME280;31495;42.740;22.908;2024-02-26T03:30:38;92583.25;;;5.37;87.89
45793;BME280;31495;42.740;22.908;2024-02-26T03:31:38;92575.38;;;5.38;87.97
45793;BME280;31495;42.740;22.908;2024-02-26T03:32:37;92575.38;;;5.38;88.06
45793;BME280;31495;42.740;22.908;2024-02-26T03:33:36;92574.38;;;5.39;88.18
45793;BME280;31495;42.740;22.908;2024-02-26T03:34:36;92577.75;;;5.40;88.28
45793;BME280;31495;42.740;22.908;2024-02-26T03:35:38;92575.78;;;5.42;88.01
45793;BME280;31495;42.740;22.908;2024-02-26T03:36:37;92575.97;;;5.47;88.12
45793;BME280;31495;42.740;22.908;2024-02-26T03:37:36;92566.09;;;5.44;88.28
45793;BME280;31495;42.740;22.908;2024-02-26T03:38:36;92570.06;;;5.46;88.18
45793;BME280;31495;42.740;22.908;2024-02-26T03:39:36;92566.69;;;5.46;88.35
45793;BME280;31495;42.740;22.908;2024-02-26T03:40:35;92565.13;;;5.45;88.35
45793;BME280;31495;42.740;22.908;2024-02-26T03:41:35;92566.09;;;5.44;88.31
45793;BME280;31495;42.740;22.908;2024-02-26T03:42:34;92563.16;;;5.47;88.53
45793;BME280;31495;42.740;22.908;2024-02-26T03:43:33;92566.13;;;5.50;88.36
45793;BME280;31495;42.740;22.908;2024-02-26T03:44:33;92568.50;;;5.52;88.21
45793;BME280;31495;42.740;22.908;2024-02-26T03:45:33;92565.34;;;5.50;88.26
45793;BME280;31495;42.740;22.908;2024-02-26T03:46:33;92566.31;;;5.49;88.11
45793;BME280;31495;42.740;22.908;2024-02-26T03:47:32;92566.94;;;5.51;88.20
45793;BME280;31495;42.740;22.908;2024-02-26T03:48:31;92570.50;;;5.57;88.42
45793;BME280;31495;42.740;22.908;2024-02-26T03:49:31;92563.75;;;5.56;88.25
45793;BME280;31495;42.740;22.908;2024-02-26T03:50:30;92558.81;;;5.54;88.15
45793;BME280;31495;42.740;22.908;2024-02-26T03:51:29;92562.19;;;5.55;87.94
45793;BME280;31495;42.740;22.908;2024-02-26T03:52:30;92558.22;;;5.45;88.13
45793;BME280;31495;42.740;22.908;2024-02-26T03:53:30;92551.09;;;5.47;88.17
45793;BME280;31495;42.740;22.908;2024-02-26T03:54:29;92552.50;;;5.50;87.57
45793;BME280;31495;42.740;22.908;2024-02-26T03:55:28;92557.44;;;5.45;87.74
45793;BME280;31495;42.740;22.908;2024-02-26T03:56:28;92562.75;;;5.43;87.67
45793;BME280;31495;42.740;22.908;2024-02-26T03:57:27;92550.50;;;5.39;87.62
45793;BME280;31495;42.740;22.908;2024-02-26T03:58:26;92556.00;;;5.36;87.90
45793;BME280;31495;42.740;22.908;2024-02-26T03:59:26;92555.03;;;5.37;87.91
45793;BME280;31495;42.740;22.908;2024-02-26T04:00:25;92549.91;;;5.37;88.31
45793;BME280;31495;42.740;22.908;2024-02-26T04:01:25;92551.47;;;5.38;88.36
45793;BME280;31495;42.740;22.908;2024-02-26T04:02:24;92553.06;;;5.39;88.65
45793;BME280;31495;42.740;22.908;2024-02-26T04:03:24;92548.53;;;5.41;88.76
45793;BME280;31495;42.740;22.908;2024-02-26T04:04:24;92550.72;;;5.44;88.76
45793;BME280;31495;42.740;22.908;2024-02-26T04:05:24;92556.22;;;5.41;88.88
45793;BME280;31495;42.740;22.908;2024-02-26T04:06:23;92553.25;;;5.37;89.11
45793;BME280;31495;42.740;22.908;2024-02-26T04:07:23;92551.66;;;5.36;89.32
45793;BME280;31495;42.740;22.908;2024-02-26T04:08:22;92552.47;;;5.37;89.50
45793;BME280;31495;42.740;22.908;2024-02-26T04:09:22;92553.25;;;5.37;89.67
45793;BME280;31495;42.740;22.908;2024-02-26T04:10:21;92554.84;;;5.38;89.88
45793;BME280;31495;42.740;22.908;2024-02-26T04:11:21;92560.94;;;5.37;89.92
45793;BME280;31495;42.740;22.908;2024-02-26T04:12:21;92559.56;;;5.34;90.07
45793;BME280;31495;42.740;22.908;2024-02-26T04:13:20;92558.56;;;5.36;89.98
45793;BME280;31495;42.740;22.908;2024-02-26T04:14:19;92559.34;;;5.36;90.24
45793;BME280;31495;42.740;22.908;2024-02-26T04:15:19;92558.19;;;5.39;90.20
45793;BME280;31495;42.740;22.908;2024-02-26T04:16:18;92549.34;;;5.41;89.94
45793;BME280;31495;42.740;22.908;2024-02-26T04:17:17;92550.13;;;5.42;89.92
45793;BME280;31495;42.740;22.908;2024-02-26T04:18:17;92551.28;;;5.46;89.48
45793;BME280;31495;42.740;22.908;2024-02-26T04:19:16;92553.47;;;5.42;89.31
45793;BME280;31495;42.740;22.908;2024-02-26T04:20:16;92549.34;;;5.41;89.31
45793;BME280;31495;42.740;22.908;2024-02-26T04:21:16;92556.41;;;5.39;89.15
45793;BME280;31495;42.740;22.908;2024-02-26T04:22:15;92547.34;;;5.37;89.33
45793;BME280;31495;42.740;22.908;2024-02-26T04:23:15;92544.75;;;5.30;89.58
45793;BME280;31495;42.740;22.908;2024-02-26T04:24:14;92542.19;;;5.30;89.53
45793;BME280;31495;42.740;22.908;2024-02-26T04:25:13;92541.00;;;5.32;89.18
45793;BME280;31495;42.740;22.908;2024-02-26T04:26:13;92544.75;;;5.30;89.28
45793;BME280;31495;42.740;22.908;2024-02-26T04:27:12;92551.41;;;5.24;89.02
45793;BME280;31495;42.740;22.908;2024-02-26T04:28:11;92551.59;;;5.23;89.21
45793;BME280;31495;42.740;22.908;2024-02-26T04:29:11;92548.47;;;5.27;89.09
45793;BME280;31495;42.740;22.908;2024-02-26T04:30:11;92555.19;;;5.28;88.92
45793;BME280;31495;42.740;22.908;2024-02-26T04:31:10;92553.00;;;5.25;88.80
45793;BME280;31495;42.740;22.908;2024-02-26T04:32:09;92545.13;;;5.27;88.77
45793;BME280;31495;42.740;22.908;2024-02-26T04:33:08;92548.47;;;5.27;88.84
45793;BME280;31495;42.740;22.908;2024-02-26T04:34:08;92544.34;;;5.26;88.90
45793;BME280;31495;42.740;22.908;2024-02-26T04:35:07;92544.34;;;5.26;88.93
45793;BME280;31495;42.740;22.908;2024-02-26T04:36:12;92549.66;;;5.25;89.02
45793;BME280;31495;42.740;22.908;2024-02-26T04:37:12;92547.47;;;5.22;89.02
45793;BME280;31495;42.740;22.908;2024-02-26T04:38:11;92544.28;;;5.20;89.30
45793;BME280;31495;42.740;22.908;2024-02-26T04:39:11;92549.44;;;5.20;88.99
45793;BME280;31495;42.740;22.908;2024-02-26T04:40:10;92553.41;;;5.22;89.44
45793;BME280;31495;42.740;22.908;2024-02-26T04:41:09;92547.28;;;5.23;89.46
45793;BME280;31495;42.740;22.908;2024-02-26T04:42:09;92550.06;;;5.28;89.43
45793;BME280;31495;42.740;22.908;2024-02-26T04:43:09;92549.47;;;5.26;88.85
45793;BME280;31495;42.740;22.908;2024-02-26T04:44:08;92549.47;;;5.26;89.00
45793;BME280;31495;42.740;22.908;2024-02-26T04:45:09;92523.94;;;5.11;88.92
45793;BME280;31495;42.740;22.908;2024-02-26T04:46:08;92553.22;;;5.30;88.77
45793;BME280;31495;42.740;22.908;2024-02-26T04:47:09;92553.41;;;5.29;88.79
45793;BME280;31495;42.740;22.908;2024-02-26T04:48:10;92553.81;;;5.32;88.91
45793;BME280;31495;42.740;22.908;2024-02-26T04:49:09;92552.06;;;5.33;88.42
45793;BME280;31495;42.740;22.908;2024-02-26T04:50:09;92551.63;;;5.29;88.71
45793;BME280;31495;42.740;22.908;2024-02-26T04:51:09;92551.44;;;5.31;88.72
45793;BME280;31495;42.740;22.908;2024-02-26T04:52:08;92549.31;;;5.34;88.83
45793;BME280;31495;42.740;22.908;2024-02-26T04:53:07;92546.53;;;5.36;88.72
45793;BME280;31495;42.740;22.908;2024-02-26T04:54:07;92545.38;;;5.39;88.67
45793;BME280;31495;42.740;22.908;2024-02-26T04:55:06;92545.97;;;5.41;88.56
45793;BME280;31495;42.740;22.908;2024-02-26T04:56:05;92545.75;;;5.42;88.58
45793;BME280;31495;42.740;22.908;2024-02-26T04:57:05;92544.97;;;5.42;88.60
45793;BME280;31495;42.740;22.908;2024-02-26T04:58:04;92543.19;;;5.42;88.60
45793;BME280;31495;42.740;22.908;2024-02-26T04:59:04;92537.88;;;5.44;88.60
45793;BME280;31495;42.740;22.908;2024-02-26T05:00:04;92547.16;;;5.45;88.66
45793;BME280;31495;42.740;22.908;2024-02-26T05:01:03;92548.53;;;5.47;89.03
45793;BME280;31495;42.740;22.908;2024-02-26T05:02:03;92549.53;;;5.46;89.06
45793;BME280;31495;42.740;22.908;2024-02-26T05:03:03;92555.47;;;5.47;89.31
45793;BME280;31495;42.740;22.908;2024-02-26T05:04:02;92555.66;;;5.45;89.61
45793;BME280;31495;42.740;22.908;2024-02-26T05:05:05;92558.81;;;5.47;89.76
45793;BME280;31495;42.740;22.908;2024-02-26T05:06:05;92550.91;;;5.49;89.89
45793;BME280;31495;42.740;22.908;2024-02-26T05:07:04;92560.00;;;5.51;89.99
45793;BME280;31495;42.740;22.908;2024-02-26T05:08:04;92559.22;;;5.51;90.18
45793;BME280;31495;42.740;22.908;2024-02-26T05:09:03;92563.38;;;5.52;90.23
45793;BME280;31495;42.740;22.908;2024-02-26T05:10:02;92553.31;;;5.57;90.42
45793;BME280;31495;42.740;22.908;2024-02-26T05:11:02;92561.19;;;5.56;90.36
45793;BME280;31495;42.740;22.908;2024-02-26T05:12:02;92562.00;;;5.56;90.45
45793;BME280;31495;42.740;22.908;2024-02-26T05:13:03;92564.38;;;5.58;90.62
45793;BME280;31495;42.740;22.908;2024-02-26T05:14:02;92560.03;;;5.58;90.69
45793;BME280;31495;42.740;22.908;2024-02-26T05:15:02;92561.22;;;5.62;90.77
45793;BME280;31495;42.740;22.908;2024-02-26T05:16:01;92558.88;;;5.61;91.01